Time;durP1;ratioP1;P1;durP2;ratioP2;P2;SDS_P1;SDS_P2;PMS_P1;PMS_P2;Temp;Humidity;BMP_temperature;BMP_pressure;BME280_temperature;BME280_humidity;BME280_pressure;Samples;Min_cycle;Max_cycle;Signal;HPM_P1;HPM_P2
2022/06/20 00:00:45;;;;;;;4.20;3.80;;;;;;;26.68;52.05;100795.78;5071606;28;20495;-80
2022/06/20 00:03:26;;;;;;;4.75;3.85;;;;;;;26.69;52.16;100792.03;5072997;28;20044;-80
2022/06/20 00:05:54;;;;;;;6.35;4.22;;;;;;;26.68;52.21;100796.63;5072878;28;20067;-80
2022/06/20 00:08:21;;;;;;;4.53;4.10;;;;;;;26.70;52.04;100791.00;5072837;28;20050;-79
2022/06/20 00:10:50;;;;;;;4.85;4.40;;;;;;;26.70;51.94;100794.59;5072770;28;20045;-78
2022/06/20 00:13:34;;;;;;;3.95;3.55;;;;;;;26.69;52.06;100795.59;5072662;28;20044;-78
2022/06/20 00:16:02;;;;;;;6.43;4.00;;;;;;;26.71;52.26;100798.16;5072966;28;20051;-78
2022/06/20 00:18:31;;;;;;;3.97;3.65;;;;;;;26.72;52.36;100813.41;5071487;28;20060;-78
2022/06/20 00:20:58;;;;;;;4.53;4.03;;;;;;;26.73;52.21;100801.53;5072727;28;20050;-79
2022/06/20 00:23:25;;;;;;;4.68;4.28;;;;;;;26.72;52.29;100803.41;5072630;28;20048;-78
2022/06/20 00:25:53;;;;;;;4.20;3.80;;;;;;;26.73;52.33;100806.94;5072225;28;20053;-78
2022/06/20 00:28:20;;;;;;;4.95;3.83;;;;;;;26.73;52.42;100796.09;5072540;28;20349;-78
2022/06/20 00:30:48;;;;;;;5.93;4.05;;;;;;;26.73;52.20;100790.66;5072664;28;20052;-78
2022/06/20 00:33:15;;;;;;;4.63;3.55;;;;;;;26.74;52.26;100789.63;5072417;28;20052;-78
2022/06/20 00:35:42;;;;;;;4.82;4.43;;;;;;;26.74;52.25;100784.19;5072419;28;20044;-78
2022/06/20 00:38:16;;;;;;;5.70;4.13;;;;;;;26.75;52.33;100788.63;5072719;28;20041;-78
2022/06/20 00:40:48;;;;;;;5.03;3.70;;;;;;;26.75;52.25;100789.47;5072733;28;20045;-78
2022/06/20 00:43:47;;;;;;;6.53;4.10;;;;;;;26.75;52.23;100797.63;5072362;28;20500;-78
2022/06/20 00:46:43;;;;;;;4.10;3.70;;;;;;;26.76;52.43;100785.72;5067227;28;20071;-77
2022/06/20 00:49:17;;;;;;;4.63;4.07;;;;;;;26.77;52.11;100787.41;5085085;28;20692;-77
2022/06/20 00:52:00;;;;;;;5.07;4.57;;;;;;;26.79;52.37;100790.78;5096047;28;20052;-77
2022/06/20 00:54:33;;;;;;;4.95;4.45;;;;;;;26.76;52.43;100783.00;5096566;28;20040;-77
2022/06/20 00:57:10;;;;;;;4.60;4.20;;;;;;;26.79;52.35;100792.66;5096742;28;20044;-77
2022/06/20 00:59:43;;;;;;;4.88;4.35;;;;;;;26.79;52.43;100784.50;5097171;28;20055;-76
2022/06/20 01:02:15;;;;;;;5.40;3.72;;;;;;;26.79;52.22;100779.09;5094497;28;20044;-77
2022/06/20 01:04:45;;;;;;;4.97;4.55;;;;;;;26.79;52.56;100776.38;5076475;28;20052;-77
2022/06/20 01:07:18;;;;;;;4.90;4.35;;;;;;;26.79;52.40;100784.50;5075719;28;20040;-77
2022/06/20 01:09:50;;;;;;;3.72;3.42;;;;;;;26.80;52.33;100786.19;5075697;28;20479;-78
2022/06/20 01:12:20;;;;;;;5.20;4.32;;;;;;;26.80;52.63;100794.34;5075912;28;20047;-78
2022/06/20 01:14:47;;;;;;;6.38;3.80;;;;;;;26.80;52.27;100792.47;5075927;28;20040;-77
2022/06/20 01:17:41;;;;;;;4.45;3.90;;;;;;;26.81;52.43;100787.88;5074476;28;20045;-77
2022/06/20 01:20:21;;;;;;;4.50;4.10;;;;;;;26.81;52.45;100787.88;5075133;28;20143;-77
2022/06/20 01:23:08;;;;;;;4.25;3.85;;;;;;;26.82;52.40;100786.88;5075832;28;20052;-78
2022/06/20 01:26:05;;;;;;;4.40;4.00;;;;;;;26.82;52.60;100784.16;5075693;28;20404;-77
2022/06/20 01:28:37;;;;;;;5.72;4.47;;;;;;;26.83;52.28;100788.56;5075479;28;20076;-78
2022/06/20 01:31:07;;;;;;;4.28;3.88;;;;;;;26.83;52.41;100780.41;5075510;28;20049;-77
2022/06/20 01:33:36;;;;;;;4.07;3.65;;;;;;;26.84;52.67;100788.38;5074613;28;20515;-79
2022/06/20 01:38:50;;;;;;;6.07;4.45;;;;;;;26.83;52.61;100789.41;5074087;28;20400;-79
2022/06/20 01:44:05;;;;;;;5.13;4.63;;;;;;;26.84;52.77;100787.53;5076021;28;20119;-78
2022/06/20 01:46:34;;;;;;;4.43;4.03;;;;;;;26.83;52.64;100781.25;5075632;28;20045;-77
2022/06/20 01:49:14;;;;;;;5.00;4.50;;;;;;;26.84;52.69;100784.81;5079245;28;20395;-77
2022/06/20 01:51:50;;;;;;;4.60;4.10;;;;;;;26.84;52.73;100766.63;5090808;28;20059;-77
2022/06/20 01:54:20;;;;;;;4.95;4.45;;;;;;;26.85;52.74;100767.47;5095282;28;20452;-78
2022/06/20 01:56:50;;;;;;;7.13;4.30;;;;;;;26.85;52.63;100767.47;5093952;28;20062;-78
2022/06/20 01:59:35;;;;;;;5.32;4.45;;;;;;;26.85;52.61;100773.75;5094384;28;20127;-78
2022/06/20 02:02:03;;;;;;;6.50;4.50;;;;;;;26.85;52.85;100781.91;5095465;28;20056;-78
2022/06/20 02:04:33;;;;;;;5.28;4.32;;;;;;;26.85;52.53;100779.19;5094993;28;20039;-77
2022/06/20 02:07:03;;;;;;;5.35;4.53;;;;;;;26.86;52.86;100780.06;5094844;28;20040;-77
2022/06/20 02:09:30;;;;;;;5.13;4.32;;;;;;;26.87;52.59;100776.28;5095039;28;20499;-78
2022/06/20 02:11:59;;;;;;;5.07;4.57;;;;;;;26.86;52.59;100769.19;5093537;28;20427;-78
2022/06/20 02:14:37;;;;;;;4.45;3.88;;;;;;;26.87;52.57;100771.69;5093545;28;20055;-78
2022/06/20 02:17:11;;;;;;;6.35;4.00;;;;;;;26.87;52.55;100773.59;5095420;28;20059;-78
2022/06/20 02:19:45;;;;;;;5.53;4.50;;;;;;;26.87;52.74;100766.28;5092977;28;20107;-78
2022/06/20 02:22:15;;;;;;;4.47;4.07;;;;;;;26.88;52.70;100767.13;5087684;28;20492;-78
2022/06/20 02:24:46;;;;;;;5.85;4.75;;;;;;;26.86;52.61;100770.03;5074266;28;20055;-78
2022/06/20 02:27:26;;;;;;;4.85;4.13;;;;;;;26.87;52.68;100774.41;5074489;28;20048;-78
2022/06/20 02:29:54;;;;;;;5.07;4.60;;;;;;;26.87;52.58;100777.13;5074360;28;20051;-78
2022/06/20 02:32:26;;;;;;;4.88;4.00;;;;;;;26.88;52.58;100764.41;5074442;28;20048;-78
2022/06/20 02:34:53;;;;;;;4.90;4.40;;;;;;;26.87;52.85;100760.84;5074401;28;20036;-78
2022/06/20 02:37:24;;;;;;;5.03;4.32;;;;;;;26.88;52.59;100767.13;5072399;28;20053;-79
2022/06/20 02:39:57;;;;;;;5.47;4.70;;;;;;;26.88;52.65;100762.53;5073111;28;20049;-79
2022/06/20 02:42:36;;;;;;;4.63;4.10;;;;;;;26.88;52.59;100767.94;5074375;28;20048;-78
2022/06/20 02:45:07;;;;;;;5.20;4.70;;;;;;;26.89;52.76;100760.66;5072455;28;20086;-79
2022/06/20 02:47:39;;;;;;;6.95;4.85;;;;;;;26.89;52.73;100763.34;5072246;28;20499;-79
2022/06/20 02:50:08;;;;;;;6.45;4.65;;;;;;;26.88;52.48;100759.81;5075897;28;20044;-78
2022/06/20 02:52:50;;;;;;;4.78;4.38;;;;;;;26.88;52.72;100759.81;5090989;28;20040;-79
2022/06/20 02:55:19;;;;;;;5.43;4.30;;;;;;;26.89;52.78;100763.34;5094131;28;20036;-78
2022/06/20 02:57:51;;;;;;;5.15;4.47;;;;;;;26.91;52.55;100760.47;5094071;28;20395;-78
2022/06/20 03:00:25;;;;;;;4.53;4.13;;;;;;;26.91;52.65;100752.31;5094051;28;20048;-79
2022/06/20 03:03:01;;;;;;;4.75;4.28;;;;;;;26.91;52.36;100755.88;5092587;28;20055;-79
2022/06/20 03:05:29;;;;;;;5.05;4.55;;;;;;;26.91;52.31;100757.75;5053847;28;20049;-79
2022/06/20 03:07:56;;;;;;;5.70;4.00;;;;;;;26.91;52.39;100750.44;5053653;28;20485;-79
2022/06/20 03:10:31;;;;;;;4.70;4.30;;;;;;;26.91;52.47;100758.59;5053269;28;20040;-79
2022/06/20 03:12:58;;;;;;;5.68;4.65;;;;;;;26.91;52.69;100760.47;5053481;28;20068;-78
2022/06/20 03:15:27;;;;;;;5.22;4.72;;;;;;;26.92;52.68;100765.72;5053288;28;20045;-78
2022/06/20 03:17:57;;;;;;;6.18;4.50;;;;;;;26.92;52.38;100768.44;5053591;28;20059;-80
2022/06/20 03:20:27;;;;;;;4.45;4.05;;;;;;;26.93;52.63;100770.13;5053063;28;20423;-78
2022/06/20 03:23:05;;;;;;;5.47;4.45;;;;;;;26.94;52.75;100765.53;5053190;28;20056;-79
2022/06/20 03:25:34;;;;;;;4.78;4.32;;;;;;;26.93;52.48;100772.84;5053602;28;20041;-79
2022/06/20 03:28:02;;;;;;;7.75;4.50;;;;;;;26.94;52.62;100776.38;5053101;28;20052;-79
2022/06/20 03:30:50;;;;;;;5.75;4.18;;;;;;;26.95;52.92;100769.94;5053245;28;20045;-79
2022/06/20 03:33:21;;;;;;;6.10;5.00;;;;;;;26.94;52.61;100763.69;5053719;28;20053;-78
2022/06/20 03:35:54;;;;;;;5.10;4.07;;;;;;;26.94;52.81;100769.13;5053123;28;20389;-80
2022/06/20 03:38:23;;;;;;;5.30;4.63;;;;;;;26.95;52.92;100772.66;5052138;28;20036;-80
2022/06/20 03:40:50;;;;;;;6.22;4.75;;;;;;;26.95;52.87;100783.53;5053290;28;20415;-78
2022/06/20 03:43:22;;;;;;;9.10;7.32;;;;;;;26.85;51.48;100778.34;5052838;28;20056;-79
2022/06/20 03:45:58;;;;;;;7.90;6.72;;;;;;;26.76;51.33;100783.00;5052915;28;20476;-79
2022/06/20 03:48:34;;;;;;;8.52;7.43;;;;;;;26.68;51.31;100788.50;5053316;28;20507;-79
2022/06/20 03:51:08;;;;;;;13.07;6.80;;;;;;;26.62;51.45;100776.50;5056882;28;20055;-79
2022/06/20 03:53:54;;;;;;;9.20;6.40;;;;;;;26.59;51.72;100773.28;5084100;28;20048;-79
2022/06/20 03:56:39;;;;;;;7.63;6.93;;;;;;;26.56;51.79;100776.38;5093021;28;20476;-79
2022/06/20 03:59:16;;;;;;;6.90;6.25;;;;;;;26.53;52.10;100768.56;5092132;28;20407;-78
2022/06/20 04:01:52;;;;;;;10.32;6.60;;;;;;;26.53;52.17;100768.56;5093337;28;20506;-78
2022/06/20 04:04:26;;;;;;;7.75;7.05;;;;;;;26.52;52.15;100773.16;5092711;28;20043;-78
2022/06/20 04:06:57;;;;;;;8.32;6.32;;;;;;;26.51;52.08;100779.63;5093324;28;20048;-78
2022/06/20 04:12:41;;;;;;;8.32;7.40;;;;;;;26.45;52.29;100772.19;5093342;28;20475;-78
2022/06/20 04:15:14;;;;;;;9.45;7.72;;;;;;;26.43;52.26;100768.78;5091575;28;20044;-78
2022/06/20 04:20:45;;;;;;;11.10;9.25;;;;;;;26.35;52.48;100777.84;5091713;28;20063;-78
2022/06/20 04:23:30;;;;;;;10.18;7.80;;;;;;;26.29;52.15;100783.13;5095838;28;20044;-78
2022/06/20 04:26:13;;;;;;;13.38;9.18;;;;;;;26.13;52.71;100795.78;5098152;28;20051;-78
2022/06/20 04:28:41;;;;;;;10.02;9.02;;;;;;;25.97;52.93;100795.00;5095525;28;20048;-78
2022/06/20 04:31:31;;;;;;;9.60;8.10;;;;;;;25.83;53.24;100793.88;5077502;28;20045;-78
2022/06/20 04:34:03;;;;;;;10.52;8.95;;;;;;;25.77;53.78;100798.16;5075575;28;20060;-78
2022/06/20 04:36:35;;;;;;;8.75;7.93;;;;;;;25.73;53.63;100788.63;5076404;28;20052;-78
2022/06/20 04:39:15;;;;;;;10.02;7.55;;;;;;;25.73;53.66;100790.50;5076582;28;20052;-78
2022/06/20 04:41:54;;;;;;;10.02;8.07;;;;;;;25.75;53.73;100788.44;5077191;28;20048;-78
2022/06/20 04:44:29;;;;;;;9.57;8.65;;;;;;;25.76;53.85;100792.84;5076711;28;20047;-78
2022/06/20 04:47:24;;;;;;;10.20;8.35;;;;;;;25.80;53.91;100796.94;5076339;28;20052;-79
2022/06/20 04:49:53;;;;;;;11.38;8.45;;;;;;;25.83;54.06;100794.72;5076152;28;20055;-79
2022/06/20 04:52:27;;;;;;;8.80;8.00;;;;;;;25.87;54.02;100797.94;5079538;28;20055;-79
2022/06/20 04:54:55;;;;;;;9.20;7.90;;;;;;;25.87;54.09;100789.78;5095016;28;20040;-79
2022/06/20 04:57:26;;;;;;;9.95;8.95;;;;;;;25.88;54.35;100792.31;5096209;28;20055;-78
2022/06/20 04:59:58;;;;;;;9.43;8.00;;;;;;;25.89;54.24;100790.47;5096312;28;20471;-78
2022/06/20 05:02:26;;;;;;;8.75;7.95;;;;;;;25.89;54.46;100795.91;5096575;28;20044;-78
2022/06/20 05:04:57;;;;;;;9.27;8.10;;;;;;;25.89;54.54;100791.31;5085303;28;20404;-78
2022/06/20 05:07:32;;;;;;;10.70;9.15;;;;;;;25.89;54.58;100783.19;5075780;28;20052;-78
2022/06/20 05:10:14;;;;;;;9.90;8.90;;;;;;;25.89;54.92;100785.88;5076465;28;20431;-78
2022/06/20 05:12:54;;;;;;;11.68;9.68;;;;;;;25.89;55.15;100790.47;5074977;28;20408;-78
2022/06/20 05:15:35;;;;;;;10.90;9.80;;;;;;;25.85;55.48;100792.69;5075690;28;20052;-78
2022/06/20 05:18:14;;;;;;;12.15;9.68;;;;;;;25.82;55.79;100800.31;5075589;28;20053;-78
2022/06/20 05:20:44;;;;;;;11.68;10.48;;;;;;;25.76;56.38;100793.69;5075316;28;20055;-78
2022/06/20 05:23:16;;;;;;;10.90;9.80;;;;;;;25.73;56.26;100795.94;5075413;28;20049;-78
2022/06/20 05:25:44;;;;;;;10.52;9.63;;;;;;;25.69;56.24;100803.56;5074077;28;20103;-78
2022/06/20 05:28:18;;;;;;;12.18;10.85;;;;;;;25.68;56.19;100801.00;5073215;28;20408;-78
2022/06/20 05:30:46;;;;;;;11.90;10.80;;;;;;;25.64;56.69;100800.50;5075698;28;20408;-79
2022/06/20 05:33:26;;;;;;;10.15;9.15;;;;;;;25.62;56.90;100808.81;5074646;28;20051;-78
2022/06/20 05:35:57;;;;;;;10.77;9.52;;;;;;;25.62;57.02;100806.13;5073951;28;20037;-79
2022/06/20 05:38:36;;;;;;;11.32;10.23;;;;;;;25.63;56.82;100810.50;5076331;28;20045;-78
2022/06/20 05:41:07;;;;;;;7.40;6.70;;;;;;;25.68;56.51;100809.97;5075839;28;20052;-78
2022/06/20 05:43:36;;;;;;;9.02;8.13;;;;;;;25.73;56.47;100815.75;5075299;28;20048;-78
2022/06/20 05:46:12;;;;;;;9.68;8.65;;;;;;;25.76;56.48;100812.66;5075329;28;20047;-77
2022/06/20 05:48:43;;;;;;;11.13;9.70;;;;;;;25.79;56.42;100812.34;5073271;28;20048;-80
2022/06/20 05:51:15;;;;;;;13.68;10.02;;;;;;;25.83;56.28;100813.69;5075453;28;20048;-81
2022/06/20 05:53:48;;;;;;;10.60;9.55;;;;;;;25.85;56.62;100813.53;5076134;28;20053;-81
2022/06/20 05:56:22;;;;;;;10.55;9.48;;;;;;;25.86;56.49;100809.81;5071816;28;20056;-79
2022/06/20 05:58:50;;;;;;;11.57;10.30;;;;;;;25.88;55.97;100807.75;5075676;28;20052;-79
2022/06/20 06:01:23;;;;;;;9.65;8.68;;;;;;;25.90;55.96;100811.16;5075272;28;20059;-80
2022/06/20 06:03:57;;;;;;;;;;;;;;;25.94;55.71;100811.63;5075763;28;20037;-81
2022/06/20 06:06:31;;;;;;;9.00;7.43;;;;;;;25.99;55.48;100820.94;5076116;28;19920;-82
2022/06/20 06:09:14;;;;;;;8.38;7.20;;;;;;;26.05;55.31;100819.38;5075922;28;20055;-79
2022/06/20 06:11:55;;;;;;;12.77;11.30;;;;;;;26.08;56.37;100817.16;5073939;28;20052;-82
2022/06/20 06:14:32;;;;;;;10.88;9.75;;;;;;;26.08;56.23;100816.31;5074973;28;20055;-80
2022/06/20 06:17:07;;;;;;;11.90;9.80;;;;;;;26.08;56.05;100811.72;5074853;28;20044;-83
2022/06/20 06:20:02;;;;;;;12.75;8.65;;;;;;;26.11;56.01;100808.66;5074906;28;20481;-84
2022/06/20 06:22:39;;;;;;;10.57;8.52;;;;;;;26.13;56.14;100813.94;5075345;28;20495;-84
2022/06/20 06:25:29;;;;;;;11.68;9.63;;;;;;;26.15;55.99;100817.31;5073651;28;20049;-83
2022/06/20 06:28:01;;;;;;;13.52;9.95;;;;;;;26.13;55.79;100806.63;5074222;28;20067;-83
2022/06/20 06:30:34;;;;;;;12.75;9.95;;;;;;;26.12;55.77;100809.50;5074966;28;20056;-82
2022/06/20 06:33:05;;;;;;;10.82;8.70;;;;;;;26.10;55.46;100815.13;5075118;28;20060;-83
2022/06/20 06:35:41;;;;;;;10.57;9.38;;;;;;;26.10;55.22;100817.84;5074953;28;20048;-82
2022/06/20 06:38:22;;;;;;;16.60;9.82;;;;;;;26.09;55.06;100809.84;5075435;28;20052;-84
2022/06/20 06:40:52;;;;;;;10.00;8.82;;;;;;;26.08;55.00;100808.16;5073794;28;20044;-82
2022/06/20 06:43:23;;;;;;;11.65;9.40;;;;;;;26.10;55.12;100806.97;5075028;28;20063;-81
2022/06/20 06:45:57;;;;;;;10.00;9.10;;;;;;;26.10;54.93;100808.84;5075160;28;20051;-81
2022/06/20 06:48:42;;;;;;;11.25;8.00;;;;;;;26.13;55.17;100806.63;5075329;28;20055;-81
2022/06/20 06:51:18;;;;;;;11.00;7.60;;;;;;;26.15;55.05;100811.88;5074489;28;20155;-79
2022/06/20 06:53:55;;;;;;;10.48;8.65;;;;;;;26.19;55.21;100815.91;5073685;28;20392;-81
2022/06/20 06:56:30;;;;;;;12.65;8.00;;;;;;;26.21;55.13;100810.31;5074250;28;20099;-82
2022/06/20 06:59:23;;;;;;;12.55;7.97;;;;;;;26.25;54.85;100809.81;5072286;28;20053;-82
2022/06/20 07:01:53;;;;;;;12.82;7.50;;;;;;;26.29;54.59;100811.13;5087864;28;20048;-82
2022/06/20 07:04:28;;;;;;;8.30;6.85;;;;;;;26.31;54.45;100806.34;5065628;28;20059;-82
2022/06/20 07:07:01;;;;;;;8.95;7.53;;;;;;;26.34;54.88;100808.72;5041508;28;20052;-82
2022/06/20 07:09:33;;;;;;;7.88;6.25;;;;;;;26.36;54.45;100800.38;5052235;28;20064;-82
2022/06/20 07:12:28;;;;;;;9.90;7.15;;;;;;;26.40;54.47;100799.00;5056962;28;20052;-82
2022/06/20 07:15:13;;;;;;;11.38;6.53;;;;;;;26.43;54.33;100801.38;5035178;28;20055;-82
2022/06/20 07:17:46;;;;;;;11.27;7.35;;;;;;;26.45;54.24;100799.34;5037526;28;20156;-83
2022/06/20 07:20:14;;;;;;;9.27;8.30;;;;;;;26.45;53.16;100796.63;5037285;28;20434;-82
2022/06/20 07:22:43;;;;;;;9.88;6.70;;;;;;;26.48;53.75;100798.97;5037027;28;20053;-82
2022/06/20 07:25:18;;;;;;;10.45;7.35;;;;;;;26.50;53.20;100794.25;5037687;28;20056;-81
2022/06/20 07:28:01;;;;;;;10.35;7.00;;;;;;;26.52;53.19;100792.16;5054648;28;20428;-81
2022/06/20 07:30:37;;;;;;;10.27;6.55;;;;;;;26.54;53.21;100783.88;5038045;28;20052;-81
2022/06/20 07:33:17;;;;;;;9.60;6.18;;;;;;;26.55;52.41;100789.09;5052220;28;20053;-81
2022/06/20 07:35:48;;;;;;;11.18;6.70;;;;;;;26.56;52.52;100784.50;5052431;28;20045;-80
2022/06/20 07:38:35;;;;;;;10.88;6.07;;;;;;;26.57;52.69;100778.03;5053872;28;20057;-82
2022/06/20 07:41:13;;;;;;;10.73;6.28;;;;;;;26.59;52.24;100774.13;5053666;28;20460;-81
2022/06/20 07:43:56;;;;;;;7.82;5.93;;;;;;;26.61;52.36;100769.34;5055334;28;20056;-81
2022/06/20 07:46:37;;;;;;;9.32;5.75;;;;;;;26.62;52.41;100770.22;5053595;28;20072;-80
2022/06/20 07:49:17;;;;;;;8.13;5.57;;;;;;;26.66;51.58;100773.41;5053292;28;20045;-81
2022/06/20 07:51:50;;;;;;;10.15;6.25;;;;;;;26.67;51.87;100773.22;5053756;28;20057;-81
2022/06/20 07:54:24;;;;;;;9.77;6.10;;;;;;;26.69;52.04;100767.59;5038366;28;20064;-81
2022/06/20 07:56:59;;;;;;;8.90;6.05;;;;;;;26.70;51.72;100769.28;5054253;28;20053;-81
2022/06/20 07:59:41;;;;;;;6.05;5.03;;;;;;;26.70;51.29;100759.31;5053967;28;20048;-81
2022/06/20 08:02:20;;;;;;;9.15;5.82;;;;;;;26.72;51.42;100767.25;5053431;28;20048;-80
2022/06/20 08:04:53;;;;;;;6.10;5.10;;;;;;;26.72;51.64;100773.53;5054501;28;20049;-81
2022/06/20 08:07:46;;;;;;;8.55;5.63;;;;;;;26.73;50.67;100768.94;5053346;28;20045;-80
2022/06/20 08:10:13;;;;;;;9.52;5.75;;;;;;;26.74;50.92;100768.78;5052532;28;20056;-81
2022/06/20 08:13:04;;;;;;;10.00;5.78;;;;;;;26.75;50.59;100761.47;5054024;28;20041;-79
2022/06/20 08:15:38;;;;;;;6.70;5.13;;;;;;;26.75;50.73;100761.47;5053430;28;20052;-80
2022/06/20 08:18:06;;;;;;;8.68;5.40;;;;;;;26.76;50.04;100758.56;5052258;28;20041;-80
2022/06/20 08:20:40;;;;;;;8.02;5.40;;;;;;;26.77;50.29;100764.81;5071356;28;20044;-80
2022/06/20 08:23:17;;;;;;;7.65;5.45;;;;;;;26.79;50.10;100768.22;5072801;28;20472;-81
2022/06/20 08:25:50;;;;;;;8.40;5.05;;;;;;;26.80;50.31;100768.03;5069802;28;20048;-82
2022/06/20 08:28:21;;;;;;;8.88;5.45;;;;;;;26.81;50.39;100771.56;5057441;28;20056;-80
2022/06/20 08:30:53;;;;;;;8.25;5.22;;;;;;;26.81;50.72;100767.00;5036344;28;20079;-81
2022/06/20 08:33:27;;;;;;;7.53;5.30;;;;;;;26.82;50.73;100776.00;5054226;28;20384;-81
2022/06/20 08:36:02;;;;;;;9.48;5.65;;;;;;;26.83;50.49;100767.66;5054037;28;20041;-81
2022/06/20 08:38:44;;;;;;;10.27;5.53;;;;;;;26.87;50.22;100770.88;5051328;28;20061;-81
2022/06/20 08:41:37;;;;;;;7.60;5.05;;;;;;;26.87;50.17;100779.84;5053265;28;20053;-81
2022/06/20 08:44:24;;;;;;;6.70;5.00;;;;;;;26.88;50.02;100770.66;5053647;28;20056;-81
2022/06/20 08:47:16;;;;;;;6.63;5.53;;;;;;;26.90;49.74;100766.91;5052679;28;20067;-81
2022/06/20 08:50:02;;;;;;;6.68;5.57;;;;;;;26.92;49.86;100773.88;5052191;28;20412;-82
2022/06/20 08:53:25;;;;;;;5.78;5.05;;;;;;;26.94;49.54;100763.69;5052628;28;20041;-83
2022/06/20 08:56:04;;;;;;;6.90;5.15;;;;;;;26.95;49.57;100754.50;5051505;28;20044;-82
2022/06/20 08:58:47;;;;;;;6.45;5.63;;;;;;;26.96;50.11;100756.16;5051788;28;20473;-81
2022/06/20 09:01:28;;;;;;;7.88;5.32;;;;;;;26.95;50.65;100748.22;5053087;28;20045;-80
2022/06/20 09:04:11;;;;;;;6.22;5.63;;;;;;;26.94;53.12;100752.81;5052972;28;20072;-80
2022/06/20 09:07:20;;;;;;;6.65;5.20;;;;;;;26.92;52.26;100752.13;5052977;28;20041;-82
2022/06/20 09:10:02;;;;;;;7.55;5.50;;;;;;;26.91;51.63;100745.03;5049306;28;20064;-79
2022/06/20 09:12:53;;;;;;;6.28;5.65;;;;;;;26.92;54.26;100745.88;5056086;28;20049;-79
2022/06/20 09:15:23;;;;;;;6.80;5.47;;;;;;;26.91;54.36;100744.19;5054736;28;20408;-78
2022/06/20 09:18:15;;;;;;;5.93;5.20;;;;;;;26.87;51.93;100741.81;5055805;28;20041;-79
2022/06/20 09:20:46;;;;;;;8.55;5.72;;;;;;;26.88;51.49;100739.94;5055797;28;20044;-79
2022/06/20 09:23:44;;;;;;;7.45;5.32;;;;;;;26.87;51.08;100740.97;5056125;28;20037;-80
2022/06/20 09:26:33;;;;;;;10.13;5.43;;;;;;;26.90;50.29;100728.88;5054400;28;20515;-80
2022/06/20 09:29:16;;;;;;;9.88;5.57;;;;;;;26.93;51.99;100721.22;5056118;28;20052;-80
2022/06/20 09:31:53;;;;;;;7.28;6.10;;;;;;;26.95;52.31;100740.06;5055978;28;20056;-79
2022/06/20 09:34:58;;;;;;;7.57;4.85;;;;;;;26.93;51.92;100731.25;5055787;28;20053;-81
2022/06/20 09:37:34;;;;;;;6.53;5.88;;;;;;;26.93;52.98;100731.25;5055480;28;20048;-80
2022/06/20 09:40:37;;;;;;;9.45;5.38;;;;;;;26.90;49.45;100728.88;5061986;28;20053;-80
2022/06/20 09:43:21;;;;;;;7.10;5.05;;;;;;;26.94;48.58;100732.91;5075632;28;20040;-79
2022/06/20 09:46:11;;;;;;;6.45;5.03;;;;;;;26.94;48.96;100724.78;5075615;28;20056;-79
2022/06/20 09:48:44;;;;;;;7.18;5.03;;;;;;;26.96;50.09;100720.84;5075910;28;20047;-79
2022/06/20 09:51:30;;;;;;;8.93;5.35;;;;;;;26.97;50.30;100708.94;5057180;28;20064;-79
2022/06/20 09:54:26;;;;;;;6.90;5.25;;;;;;;26.97;50.30;100710.81;5075319;28;20416;-78
2022/06/20 09:57:15;;;;;;;6.25;4.70;;;;;;;26.96;51.10;100709.16;5073341;28;20056;-79
2022/06/20 09:59:56;;;;;;;8.05;5.40;;;;;;;26.93;50.80;100710.34;5073095;28;20045;-79
2022/06/20 10:02:26;;;;;;;5.80;5.20;;;;;;;26.93;49.95;100704.06;5073336;28;20067;-78
2022/06/20 10:05:14;;;;;;;10.38;5.78;;;;;;;26.93;49.01;100706.78;5072819;28;20511;-79
2022/06/20 10:07:54;;;;;;;8.60;5.60;;;;;;;26.92;48.96;100702.41;5013023;28;20064;-79
2022/06/20 10:10:42;;;;;;;10.02;4.63;;;;;;;26.91;48.94;100707.00;5013127;28;20058;-78
2022/06/20 10:13:42;;;;;;;9.43;5.50;;;;;;;26.92;48.40;100705.94;5013248;28;20513;-79
2022/06/20 10:16:18;;;;;;;8.20;4.95;;;;;;;26.93;49.37;100702.19;5013816;28;20445;-79
2022/06/20 10:18:50;;;;;;;7.43;5.57;;;;;;;26.94;49.65;100701.19;5013232;28;20058;-79
2022/06/20 10:21:47;;;;;;;7.90;5.45;;;;;;;26.96;48.76;100693.69;5012400;28;20062;-78
2022/06/20 10:24:34;;;;;;;6.90;5.63;;;;;;;26.97;49.16;100698.09;5012947;28;20461;-78
2022/06/20 10:27:20;;;;;;;7.60;5.57;;;;;;;26.99;47.50;100690.59;5012751;28;20064;-79
2022/06/20 10:30:13;;;;;;;8.48;5.75;;;;;;;27.02;49.30;100682.09;5012811;28;20053;-79
2022/06/20 10:33:08;;;;;;;8.32;5.53;;;;;;;27.03;49.15;100677.50;5011223;28;20085;-80
2022/06/20 10:35:38;;;;;;;7.82;5.72;;;;;;;27.02;49.16;100676.66;5013530;28;20046;-79
2022/06/20 10:38:13;;;;;;;7.65;5.75;;;;;;;27.03;50.40;100677.50;4996745;28;20106;-78
2022/06/20 10:40:49;;;;;;;7.22;5.22;;;;;;;27.03;50.88;100672.91;5012940;28;20219;-78
2022/06/20 10:43:35;;;;;;;9.57;5.57;;;;;;;27.01;49.95;100664.06;5012591;28;20513;-78
2022/06/20 10:46:10;;;;;;;8.02;5.70;;;;;;;27.01;50.44;100671.38;5070933;28;20063;-78
2022/06/20 10:48:50;;;;;;;7.10;5.10;;;;;;;27.01;49.68;100668.66;5074092;28;20158;-78
2022/06/20 10:51:35;;;;;;;6.90;5.20;;;;;;;27.02;49.07;100664.91;5072909;28;20057;-79
2022/06/20 10:54:23;;;;;;;7.60;5.72;;;;;;;27.01;48.35;100657.81;5072798;28;20048;-77
2022/06/20 10:56:59;;;;;;;6.07;5.05;;;;;;;27.02;49.07;100657.63;5072834;28;20060;-78
2022/06/20 10:59:40;;;;;;;6.53;5.30;;;;;;;27.01;48.65;100658.66;5074043;28;20040;-78
2022/06/20 11:02:45;;;;;;;8.75;5.32;;;;;;;27.02;48.18;100648.63;5074642;28;20059;-76
2022/06/20 11:05:28;;;;;;;8.88;5.30;;;;;;;27.02;48.28;100652.19;5074409;28;20495;-77
2022/06/20 11:07:58;;;;;;;8.00;5.95;;;;;;;27.03;49.09;100647.59;5074144;28;20486;-76
2022/06/20 11:10:53;;;;;;;5.65;5.03;;;;;;;27.04;49.76;100641.97;5071327;28;20404;-76
2022/06/20 11:13:37;;;;;;;8.27;6.20;;;;;;;27.05;50.24;100642.81;5074239;28;20052;-78
2022/06/20 11:16:22;;;;;;;12.73;6.78;;;;;;;27.06;49.46;100641.78;5074069;28;20056;-79
2022/06/20 11:19:06;;;;;;;6.07;5.38;;;;;;;27.07;50.08;100636.16;5073401;28;20032;-79
2022/06/20 11:21:43;;;;;;;6.63;5.78;;;;;;;27.08;49.39;100637.84;5072554;28;20048;-78
2022/06/20 11:24:40;;;;;;;6.90;5.60;;;;;;;27.09;48.97;100633.25;5072475;28;20531;-78
2022/06/20 11:27:34;;;;;;;7.88;5.20;;;;;;;27.10;49.39;100635.84;5072394;28;20051;-78
2022/06/20 11:30:07;;;;;;;8.15;5.75;;;;;;;27.11;49.38;100632.09;5073431;28;20048;-78
2022/06/20 11:32:55;;;;;;;10.38;6.13;;;;;;;27.13;49.73;100631.88;5072456;28;20048;-77
2022/06/20 11:35:54;;;;;;;7.43;6.03;;;;;;;27.14;47.53;100627.28;5073431;28;20052;-78
2022/06/20 11:38:46;;;;;;;9.00;5.45;;;;;;;27.22;46.88;100624.47;5073631;28;20044;-76
2022/06/20 11:41:25;;;;;;;10.85;6.10;;;;;;;27.27;46.73;100614.72;5072213;28;20044;-78
2022/06/20 11:44:11;;;;;;;9.50;5.50;;;;;;;27.31;47.12;100612.47;5071782;28;20059;-78
2022/06/20 11:47:00;;;;;;;6.78;5.20;;;;;;;27.35;47.53;100613.78;5072504;28;20056;-78
2022/06/20 11:49:36;;;;;;;7.95;5.38;;;;;;;27.35;47.81;100613.78;5073065;28;20044;-79
2022/06/20 11:52:32;;;;;;;6.35;5.72;;;;;;;27.35;48.18;100611.06;5053441;28;20179;-78
2022/06/20 11:55:26;;;;;;;7.75;5.22;;;;;;;27.33;48.96;100607.69;5053428;28;20057;-78
2022/06/20 11:58:05;;;;;;;6.88;5.55;;;;;;;27.32;49.26;100606.84;5053010;28;20041;-79
2022/06/20 12:00:42;;;;;;;7.40;5.55;;;;;;;27.31;49.42;100601.59;5052532;28;20067;-79
2022/06/20 12:03:55;;;;;;;6.03;5.45;;;;;;;27.31;49.03;100601.59;5053347;28;20056;-79
2022/06/20 12:06:41;;;;;;;5.63;5.13;;;;;;;27.30;49.64;100603.47;5052701;28;20049;-79
2022/06/20 12:09:17;;;;;;;8.32;6.03;;;;;;;27.30;49.30;100602.63;5052798;28;20041;-78
2022/06/20 12:12:14;;;;;;;8.07;5.57;;;;;;;27.29;49.25;100598.22;5052490;28;20056;-77
2022/06/20 12:14:59;;;;;;;7.78;5.60;;;;;;;27.29;49.72;100595.50;5052887;28;20060;-78
2022/06/20 12:17:48;;;;;;;6.38;5.70;;;;;;;27.30;49.61;100589.03;5052999;28;20060;-78
2022/06/20 12:23:34;;;;;;;5.47;4.95;;;;;;;27.29;50.11;100581.91;5052856;28;20053;-78
2022/06/20 12:26:33;;;;;;;5.30;4.40;;;;;;;27.29;50.23;100574.59;5051506;28;20385;-78
2022/06/20 12:29:04;;;;;;;5.72;5.13;;;;;;;27.29;50.46;100571.03;5052491;28;20509;-78